INFORMACIÓN METAR y TAF
METAR FOR GMMX
ADDS - METARS form results

(2243 UTC 24 October 2021)
Data provider http://aviationweather.gov/metar/data/
 
METAR text: GMMX 242230Z 08004KT CAVOK 22/05 Q1018 NOSIG
Conditions at: GMMX (MARRAKECH/MENARA, MA) observed 2230 UTC 24 October 2021
Temperature: 22.0°C (72°F)
Dewpoint: 5.0°C (41°F) [RH = 33%]
Pressure (altimeter): 30.06 inches Hg (1018.0 mb)
Winds: from the E (80 degrees) at 5 MPH (4 knots; 2.1 m/s)
Visibility: 6 or more miles (10+ km)
Ceiling: ceiling and visibility are OK
Clouds: unknown
Weather: no significant weather observed at this time

METAR text: GMMX 242200Z 09005KT CAVOK 22/06 Q1018 NOSIG
Conditions at: GMMX (MARRAKECH/MENARA, MA) observed 2200 UTC 24 October 2021
Temperature: 22.0°C (72°F)
Dewpoint: 6.0°C (43°F) [RH = 35%]
Pressure (altimeter): 30.06 inches Hg (1018.0 mb)
Winds: from the E (90 degrees) at 6 MPH (5 knots; 2.6 m/s)
Visibility: 6 or more miles (10+ km)
Ceiling: ceiling and visibility are OK
Clouds: unknown
Weather: no significant weather observed at this time

Forecast for: GMMX (MARRAKECH/MENARA, MA)
Text: TAF GMMX 241700Z 2418/2524 02006KT 8000 NSC
Forecast period: 1800 UTC 24 October 2021 to 0000 UTC 26 October 2021
Forecast type: FROM: standard forecast or significant change
Winds: from the NNE (20 degrees) at 7 MPH (6 knots; 3.1 m/s)
Visibility: 5 miles (8 km)
Ceiling: unknown
Clouds: missing
Weather: no significant weather forecast for this period

 MAPA DE AEROPUERTO

 INFORMACIÓN DE PISTA
Pista 10 Longitud 10170 ft Ancho 148 ft
Elevación 1506 ft Umbral desplazado 918 ft Rumbo de pista 96
Pista 28 Longitud 10170 ft Ancho 148 ft
Elevación 1545 ft Umbral desplazado 0 ft Rumbo de pista 276

 FRECUANCIAS DEL AEROPUERTO
Tipo APP Nombre MARRAKECH Frecuencia 119.7 MHZ
Tipo TWR Nombre MARRAKECH Frecuencia 118.7 MHZ

 RADIO AYUDAS DEL AEROPUERTO
Tipo NDB Nombre Marrakech Frecuencia 267 KHZ
Tipo VOR-DME Nombre Marrakech Frecuencia 113300 KHZ




Normativa | Spanair Virtual © 2021 |